createdAt,value
2019-05-16T00:32:08.491Z,91.42
2019-05-16T00:33:08.315Z,92.27
2019-05-16T00:34:15.583Z,91.42
2019-05-16T00:36:10.771Z,90.56
2019-05-16T00:37:22.912Z,91.22
2019-05-16T00:39:15.116Z,91.89
2019-05-16T00:40:15.063Z,91.89
2019-05-16T00:42:19.975Z,92.27
2019-05-16T00:45:49.791Z,91.75
2019-05-16T00:48:22.225Z,92.36
2019-05-16T00:49:21.811Z,92.32
2019-05-16T00:50:21.724Z,92.32
2019-05-16T00:51:22.337Z,92.22
2019-05-16T00:52:21.648Z,92.56
2019-05-16T00:53:21.603Z,91.94
2019-05-16T00:54:21.566Z,92.51
2019-05-16T00:55:21.520Z,93.27
2019-05-16T00:58:28.410Z,93.94
2019-05-16T00:59:35.085Z,94.79
2019-05-16T01:01:30.276Z,94.13
2019-05-16T01:02:30.164Z,93.65
2019-05-16T01:03:30.128Z,93.94
2019-05-16T01:04:30.604Z,93.37
2019-05-16T01:05:30.529Z,93.18
2019-05-16T01:06:30.003Z,93.55
2019-05-16T01:07:29.966Z,94.22
2019-05-16T01:08:29.918Z,93.94
2019-05-16T01:09:39.058Z,94.32
2019-05-16T01:11:34.366Z,94.42
2019-05-16T01:12:34.331Z,94.60
2019-05-16T01:13:34.192Z,93.75
2019-05-16T01:14:34.634Z,93.94
2019-05-16T01:15:34.562Z,94.13
2019-05-16T01:16:34.068Z,94.13
2019-05-16T01:17:34.042Z,93.75
2019-05-16T01:18:33.985Z,93.94
2019-05-16T01:19:33.944Z,94.51
2019-05-16T01:20:33.907Z,94.42
2019-05-16T01:21:33.870Z,93.84
2019-05-16T01:22:33.829Z,93.94
2019-05-16T01:23:33.790Z,93.27
2019-05-16T01:24:33.753Z,92.89
2019-05-16T01:25:33.705Z,92.99
2019-05-16T01:26:33.666Z,92.99
2019-05-16T01:27:42.806Z,93.08
2019-05-16T01:29:38.646Z,93.75
2019-05-16T01:30:39.043Z,93.65
2019-05-16T01:31:38.084Z,94.03
2019-05-16T01:32:48.930Z,94.51
2019-05-16T01:34:42.889Z,95.17
2019-05-16T01:37:14.818Z,95.56
2019-05-16T01:38:24.477Z,95.17
2019-05-16T01:40:19.719Z,95.89
2019-05-16T01:41:28.490Z,95.51
2019-05-16T01:43:23.488Z,96.26
2019-05-16T01:44:23.009Z,96.26
2019-05-16T01:47:28.854Z,97.17
2019-05-16T01:48:29.258Z,97.03
2019-05-16T01:49:28.231Z,96.50
2019-05-16T01:50:28.358Z,96.89
2019-05-16T01:51:28.852Z,96.31
2019-05-16T01:52:28.947Z,96.45
2019-05-16T01:53:27.861Z,96.65
2019-05-16T01:54:28.437Z,96.84
2019-05-16T01:55:28.548Z,96.93
2019-05-16T01:56:28.103Z,96.84
2019-05-16T01:57:28.257Z,97.03
2019-05-16T02:00:37.267Z,96.55
2019-05-16T02:01:32.180Z,97.03
2019-05-16T02:02:40.386Z,96.84
2019-05-16T02:04:44.382Z,96.84
2019-05-16T02:05:38.552Z,97.31
2019-05-16T02:08:08.959Z,97.31
2019-05-16T02:09:08.049Z,97.03
2019-05-16T02:11:48.157Z,96.84
2019-05-16T02:12:48.813Z,97.78
2019-05-16T02:13:48.469Z,97.41
2019-05-16T02:14:48.105Z,97.22
2019-05-16T02:15:48.648Z,97.41
2019-05-16T02:16:47.726Z,97.69
2019-05-16T02:17:48.300Z,98.17
2019-05-16T02:18:48.673Z,97.88
2019-05-16T02:19:48.386Z,97.88
2019-05-16T02:20:47.963Z,97.60
2019-05-16T02:21:47.641Z,97.31
2019-05-16T02:22:55.389Z,97.22
2019-05-16T02:24:58.818Z,97.88
2019-05-16T02:25:51.613Z,97.12
2019-05-16T02:26:52.417Z,98.17
2019-05-16T02:27:50.963Z,97.92
2019-05-16T02:28:51.475Z,98.07
2019-05-16T02:29:50.926Z,98.17
2019-05-16T02:30:51.389Z,98.64
2019-05-16T02:31:51.566Z,98.26
2019-05-16T02:32:52.221Z,98.17
2019-05-16T02:33:51.081Z,98.64
2019-05-16T02:34:51.425Z,98.36
2019-05-16T02:35:54.723Z,98.55
2019-05-16T02:37:10.617Z,98.55
2019-05-16T02:37:54.761Z,98.36
2019-05-16T02:40:55.534Z,98.36
2019-05-16T02:41:54.458Z,98.36
2019-05-16T02:42:56.196Z,98.74
2019-05-16T02:43:54.374Z,98.17
2019-05-16T02:44:54.800Z,98.55
2019-05-16T02:45:55.264Z,98.64
2019-05-16T02:47:03.227Z,98.55
2019-05-16T02:49:00.837Z,98.55
2019-05-16T02:50:00.818Z,98.64
2019-05-16T02:51:01.580Z,98.36
2019-05-16T02:52:01.181Z,98.55
2019-05-16T02:53:01.369Z,98.55
2019-05-16T02:54:01.164Z,98.74
2019-05-16T02:55:00.856Z,98.55
2019-05-16T02:56:01.150Z,98.64
2019-05-16T02:57:01.179Z,98.07
2019-05-16T02:58:00.816Z,98.07
2019-05-16T02:59:01.427Z,98.26
2019-05-16T03:00:01.245Z,97.97
2019-05-16T03:01:01.441Z,98.36
2019-05-16T03:02:00.635Z,95.51
2019-05-16T03:03:00.983Z,95.51
2019-05-16T03:03:58.002Z,95.89
2019-05-16T03:05:00.648Z,95.89
2019-05-16T03:06:01.049Z,95.79
2019-05-16T03:07:00.406Z,94.18
2019-05-16T03:08:01.041Z,94.84
2019-05-16T03:08:57.795Z,95.03
2019-05-16T03:10:01.162Z,95.41
2019-05-16T03:11:00.754Z,95.89
2019-05-16T03:11:57.676Z,96.74
2019-05-16T03:13:00.577Z,96.08
2019-05-16T03:14:00.396Z,95.32
2019-05-16T03:15:10.698Z,95.89
2019-05-16T03:17:01.995Z,95.70
2019-05-16T03:18:11.497Z,95.22
2019-05-16T03:20:10.556Z,93.99
2019-05-16T03:21:16.989Z,94.08
2019-05-16T03:37:25.076Z,89.42
2019-05-16T03:38:21.497Z,88.95
2019-05-16T03:39:21.303Z,90.85
2019-05-16T03:40:21.372Z,90.37
2019-05-16T03:41:21.648Z,88.47
2019-05-16T03:42:21.406Z,88.38
2019-05-16T03:43:21.774Z,89.23
2019-05-16T03:44:21.335Z,87.71
2019-05-16T03:45:21.416Z,87.14
2019-05-16T03:46:21.798Z,87.43
2019-05-16T03:47:21.885Z,87.14
2019-05-16T03:48:21.584Z,86.19
2019-05-16T03:49:21.247Z,85.43
2019-05-16T03:50:21.748Z,86.19
2019-05-16T03:51:21.505Z,86.00
2019-05-16T03:52:20.955Z,86.76
2019-05-16T03:53:21.253Z,86.19
2019-05-16T03:54:21.468Z,85.43
2019-05-16T03:55:21.328Z,85.62
2019-05-16T03:56:21.944Z,87.05
2019-05-16T03:57:21.452Z,87.71
2019-05-16T03:58:22.500Z,89.04
2019-05-16T03:59:21.573Z,90.47
2019-05-16T04:00:31.634Z,90.28
2019-05-16T04:02:25.118Z,91.89
2019-05-16T04:03:28.140Z,91.42
2019-05-16T04:04:24.501Z,90.66
2019-05-16T04:05:24.472Z,89.90
2019-05-16T04:06:25.125Z,88.67
2019-05-16T04:07:24.849Z,88.00
2019-05-16T04:08:25.565Z,87.34
2019-05-16T04:09:25.207Z,87.34
2019-05-16T04:10:24.755Z,86.57
2019-05-16T04:11:25.160Z,86.52
2019-05-16T04:12:24.618Z,86.99
2019-05-16T04:13:24.130Z,86.61
2019-05-16T04:14:24.089Z,85.95
2019-05-16T04:15:24.053Z,85.28
2019-05-16T04:16:24.010Z,84.86
2019-05-16T04:17:23.963Z,85.43
2019-05-16T04:18:23.924Z,85.34
2019-05-16T04:19:23.884Z,85.24
2019-05-16T04:20:23.840Z,85.34
2019-05-16T04:21:23.806Z,83.82
2019-05-16T04:22:23.764Z,82.77
2019-05-16T04:23:23.734Z,82.01
2019-05-16T04:24:23.683Z,82.39
2019-05-16T04:25:23.637Z,82.96
2019-05-16T04:26:23.604Z,82.29
2019-05-16T04:27:23.564Z,83.06
2019-05-16T04:28:23.520Z,82.68
2019-05-16T04:29:23.477Z,83.06
2019-05-16T04:30:23.440Z,81.54
2019-05-16T04:31:23.397Z,81.44
2019-05-16T04:32:23.357Z,80.49
2019-05-16T04:33:23.321Z,79.44
2019-05-16T04:34:23.278Z,79.25
2019-05-16T04:35:32.859Z,79.63
2019-05-16T04:37:31.104Z,78.97
2019-05-16T04:38:41.388Z,79.83
2019-05-16T04:40:32.898Z,80.34
2019-05-16T04:41:32.361Z,79.73
2019-05-16T04:42:32.293Z,79.63
2019-05-16T04:43:32.302Z,80.82
2019-05-16T04:44:32.231Z,80.63
2019-05-16T04:45:41.381Z,78.91
2019-05-16T04:47:36.746Z,77.92
2019-05-16T04:48:36.693Z,79.11
2019-05-16T04:49:36.450Z,80.15
2019-05-16T04:50:36.039Z,80.34
2019-05-16T04:51:35.977Z,79.86
2019-05-16T04:54:41.839Z,80.63
2019-05-16T04:55:51.461Z,82.15
2019-05-16T04:57:54.772Z,88.80
2019-05-16T04:58:45.654Z,93.65
2019-05-16T04:59:44.991Z,94.42
2019-05-16T05:00:45.802Z,94.22
2019-05-16T05:01:44.947Z,93.55
2019-05-16T05:02:46.336Z,93.84
2019-05-16T05:04:00.238Z,94.65
2019-05-16T05:04:44.794Z,93.32
2019-05-16T05:05:44.828Z,93.60
2019-05-16T05:06:44.913Z,93.79
2019-05-16T05:07:44.427Z,94.18
2019-05-16T05:08:53.927Z,96.70
2019-05-16T05:09:44.198Z,99.99
2019-05-16T05:10:44.586Z,97.84
2019-05-16T05:11:44.111Z,95.27
2019-05-16T05:12:44.074Z,95.56
2019-05-16T05:13:44.036Z,99.46
2019-05-16T05:14:43.994Z,99.99
2019-05-16T05:15:43.954Z,99.99
2019-05-16T05:16:43.912Z,98.88
2019-05-16T05:17:43.871Z,98.32
2019-05-16T05:18:43.833Z,98.98
2019-05-16T05:19:43.791Z,98.22
2019-05-16T05:20:43.755Z,97.50
2019-05-16T05:21:43.720Z,98.41
2019-05-16T05:22:43.696Z,97.55
2019-05-16T05:23:43.630Z,96.79
2019-05-16T05:24:43.593Z,96.98
2019-05-16T05:25:43.582Z,97.17
2019-05-16T05:26:43.514Z,96.70
2019-05-16T05:27:43.486Z,96.70
2019-05-16T05:28:43.432Z,96.60
2019-05-16T05:29:43.390Z,96.31
2019-05-16T05:30:43.355Z,96.60
2019-05-16T05:31:45.248Z,96.65
2019-05-16T05:32:43.277Z,97.17
2019-05-16T05:33:43.239Z,96.51
2019-05-16T05:34:43.195Z,97.08
2019-05-16T05:35:43.171Z,96.79
2019-05-16T05:36:43.112Z,96.03
2019-05-16T05:37:43.077Z,96.84
2019-05-16T05:38:43.032Z,96.89
2019-05-16T05:39:43.000Z,96.98
2019-05-16T05:40:42.957Z,97.08
2019-05-16T05:41:42.913Z,96.89
2019-05-16T05:44:55.468Z,96.41
2019-05-16T05:45:47.601Z,96.51
2019-05-16T05:46:47.193Z,96.60
2019-05-16T05:47:47.637Z,96.51
2019-05-16T05:48:47.111Z,95.46
2019-05-16T05:49:47.073Z,95.56
2019-05-16T05:50:47.036Z,94.51
2019-05-16T05:51:46.999Z,92.79
2019-05-16T05:52:46.957Z,94.98
2019-05-16T05:53:46.915Z,94.60
2019-05-16T05:54:46.878Z,94.42
2019-05-16T05:55:46.834Z,94.51
2019-05-16T05:56:46.794Z,95.36
2019-05-16T05:57:46.753Z,95.51
2019-05-16T05:58:46.718Z,96.55
2019-05-16T05:59:46.675Z,96.94
2019-05-16T06:00:46.642Z,96.08
2019-05-16T06:01:46.603Z,96.46
2019-05-16T06:02:46.560Z,97.13
2019-05-16T06:03:46.522Z,96.46
2019-05-16T06:04:46.477Z,95.46
2019-05-16T06:05:46.435Z,94.56
2019-05-16T06:06:46.394Z,94.46
2019-05-16T06:07:46.360Z,94.37
2019-05-16T06:08:46.322Z,94.03
2019-05-16T06:09:53.468Z,92.55
2019-05-16T06:10:46.243Z,93.51
2019-05-16T06:11:46.202Z,93.41
2019-05-16T06:12:46.180Z,92.08
2019-05-16T06:13:46.132Z,91.60
2019-05-16T06:14:46.085Z,92.18
2019-05-16T06:15:46.146Z,90.94
2019-05-16T06:16:46.030Z,92.08
2019-05-16T06:17:45.961Z,91.41
2019-05-16T06:18:45.923Z,90.94
2019-05-16T06:19:45.886Z,91.41
2019-05-16T06:20:45.846Z,91.22
2019-05-16T06:21:45.818Z,90.84
2019-05-16T06:22:45.770Z,93.13
2019-05-16T06:23:45.728Z,93.70
2019-05-16T06:24:45.700Z,93.70
2019-05-16T06:25:45.645Z,93.13
2019-05-16T06:26:45.624Z,93.89
2019-05-16T06:27:45.594Z,94.46
2019-05-16T06:28:45.528Z,94.46
2019-05-16T06:29:45.488Z,93.70
2019-05-16T06:30:45.449Z,94.65
2019-05-16T06:33:33.439Z,93.98
2019-05-16T06:34:26.757Z,93.89
2019-05-16T06:35:25.690Z,94.65
2019-05-16T06:36:25.649Z,93.70
2019-05-16T09:50:31.664Z,71.92
2019-05-16T09:51:31.592Z,69.62
2019-05-16T09:52:31.383Z,70.58
2019-05-16T09:53:31.412Z,72.58
2019-05-16T09:54:31.291Z,71.34
2019-05-16T09:55:31.247Z,70.67
2019-05-16T09:56:31.211Z,69.37
2019-05-16T09:57:31.170Z,70.20
2019-05-16T09:58:31.135Z,71.47
2019-05-16T09:59:31.097Z,71.57
2019-05-16T10:00:31.050Z,73.86
2019-05-16T10:01:31.013Z,73.86
2019-05-16T10:02:30.980Z,74.34
2019-05-16T10:03:30.940Z,74.53
2019-05-16T10:04:30.894Z,72.53
2019-05-16T10:05:30.861Z,72.24
2019-05-16T10:06:30.821Z,70.71
2019-05-16T10:07:30.809Z,70.33
2019-05-16T10:08:30.748Z,71.38
2019-05-16T10:09:40.826Z,70.42
2019-05-16T10:10:30.672Z,71.38
2019-05-16T10:11:31.685Z,71.42
2019-05-16T10:12:30.594Z,66.92
2019-05-16T10:13:30.557Z,63.45
2019-05-16T10:14:30.520Z,64.40
2019-05-16T10:15:30.481Z,67.84
2019-05-16T10:16:30.460Z,68.99
2019-05-16T10:17:30.409Z,71.99
2019-05-16T10:18:30.369Z,71.32
2019-05-16T10:19:30.330Z,71.70
2019-05-16T10:20:30.299Z,70.27
2019-05-16T10:21:30.260Z,70.75
2019-05-16T10:22:30.223Z,72.12
2019-05-16T10:23:30.191Z,73.84
2019-05-16T10:24:30.145Z,74.13
2019-05-16T10:25:30.110Z,72.75
2019-05-16T10:26:30.075Z,72.75
2019-05-16T10:27:30.035Z,73.14
2019-05-16T10:28:30.001Z,73.52
2019-05-16T10:29:29.987Z,72.66
2019-05-16T10:30:29.927Z,71.89
2019-05-16T10:31:41.361Z,71.13
2019-05-16T10:32:29.853Z,73.14
2019-05-16T10:33:29.826Z,72.37
2019-05-16T10:34:29.784Z,71.42
2019-05-16T10:35:30.256Z,72.18
2019-05-16T10:36:29.705Z,72.66
2019-05-16T10:37:29.671Z,72.85
2019-05-16T10:38:29.633Z,72.08
2019-05-16T10:39:29.603Z,72.75
2019-05-16T10:40:29.563Z,73.43
2019-05-16T10:41:29.526Z,71.89
2019-05-16T10:42:29.489Z,70.84
2019-05-16T10:43:29.454Z,70.36
2019-05-16T10:44:29.416Z,69.02
2019-05-16T10:45:29.376Z,68.93
2019-05-16T10:46:29.340Z,68.45
2019-05-16T10:47:31.330Z,68.55
2019-05-16T10:48:29.271Z,68.35
2019-05-16T10:49:37.138Z,68.07
2019-05-16T10:50:29.231Z,68.16
2019-05-16T10:51:29.182Z,68.35
2019-05-16T10:52:29.125Z,68.26
2019-05-16T10:53:57.894Z,68.26
2019-05-16T10:54:29.121Z,68.45
2019-05-16T10:55:29.052Z,68.07
2019-05-16T10:56:28.979Z,67.65
2019-05-16T10:57:29.946Z,69.21
2019-05-16T10:58:37.203Z,69.60
2019-05-16T11:00:57.544Z,68.16
2019-05-16T11:01:31.394Z,66.83
2019-05-16T11:02:28.802Z,68.07
2019-05-16T11:03:28.747Z,68.16
2019-05-16T11:04:42.129Z,68.04
2019-05-16T11:05:36.185Z,67.97
2019-05-16T11:06:29.259Z,68.16
2019-05-16T11:07:29.815Z,68.74
2019-05-16T11:08:28.546Z,68.26
2019-05-16T11:09:28.507Z,67.49
2019-05-16T11:10:29.611Z,67.97
2019-05-16T11:11:28.433Z,67.88
2019-05-16T11:12:45.293Z,67.59
2019-05-16T11:13:28.359Z,66.73
2019-05-16T11:14:28.357Z,67.78
2019-05-16T11:15:28.292Z,67.59
2019-05-16T11:16:28.247Z,66.73
2019-05-16T11:17:28.213Z,66.54
2019-05-16T11:18:28.184Z,66.25
2019-05-16T11:19:28.323Z,66.73
2019-05-16T11:20:28.161Z,66.73
2019-05-16T11:21:28.070Z,66.92
2019-05-16T11:22:29.895Z,67.69
2019-05-16T11:23:31.276Z,68.07
2019-05-16T11:24:29.377Z,67.59
2019-05-16T11:25:31.855Z,68.10
2019-05-16T11:26:30.232Z,67.63
2019-05-16T11:27:27.856Z,65.90
2019-05-16T11:28:27.817Z,64.91
2019-05-16T11:29:27.784Z,64.47
2019-05-16T11:30:28.173Z,66.28
2019-05-16T11:31:27.707Z,65.81
2019-05-16T11:32:27.678Z,64.56
2019-05-16T11:33:28.223Z,64.37
2019-05-16T11:34:27.599Z,66.00
2019-05-16T11:35:27.566Z,65.71
2019-05-16T11:36:27.527Z,66.22
2019-05-16T11:37:27.957Z,67.66
2019-05-16T11:38:27.455Z,65.94
2019-05-16T11:39:27.441Z,64.47
2019-05-16T11:40:30.118Z,64.62
2019-05-16T11:41:27.681Z,63.86
2019-05-16T11:42:28.009Z,64.15
2019-05-16T11:43:27.880Z,64.43
2019-05-16T11:44:28.729Z,65.77
2019-05-16T11:45:27.328Z,66.50
2019-05-16T11:46:28.084Z,67.49
2019-05-16T11:47:27.274Z,68.35
2019-05-16T11:48:29.236Z,68.16
2019-05-16T11:49:27.590Z,68.07
2019-05-16T11:50:28.081Z,67.78
2019-05-16T11:51:27.370Z,66.16
2019-05-16T11:52:26.950Z,65.39
2019-05-16T11:53:28.201Z,65.77
2019-05-16T11:54:26.873Z,65.87
2019-05-16T11:55:33.390Z,66.44
2019-05-16T11:56:26.803Z,67.08
2019-05-16T11:57:26.777Z,67.78
2019-05-16T11:58:26.807Z,68.23
2019-05-16T11:59:26.694Z,67.97
2019-05-16T12:00:30.512Z,66.22
2019-05-16T12:01:27.606Z,66.79
2019-05-16T12:02:27.888Z,66.70
2019-05-16T12:03:28.198Z,68.13
2019-05-16T12:04:28.052Z,68.04
2019-05-16T12:05:26.993Z,67.94
2019-05-16T12:06:26.883Z,67.65
2019-05-16T12:07:33.938Z,67.46
2019-05-16T12:08:26.533Z,67.46
2019-05-16T12:09:33.365Z,67.84
2019-05-16T12:10:27.054Z,67.94
2019-05-16T12:11:27.410Z,69.56
2019-05-16T12:12:27.102Z,69.47
2019-05-16T12:13:31.820Z,69.56
2019-05-16T12:14:27.232Z,69.95
2019-05-16T12:15:27.390Z,70.17
2019-05-16T12:16:27.490Z,69.79
2019-05-16T12:17:28.030Z,70.07
2019-05-16T12:18:26.566Z,70.65
2019-05-16T12:19:33.352Z,71.22
2019-05-16T12:20:27.376Z,69.89
2019-05-16T12:21:27.428Z,68.61
2019-05-16T12:22:26.794Z,68.64
2019-05-16T12:23:27.550Z,69.41
2019-05-16T12:24:33.166Z,70.07
2019-05-16T12:25:27.341Z,69.56
2019-05-16T12:26:27.925Z,69.76
2019-05-16T12:27:32.336Z,69.85
2019-05-16T12:28:27.275Z,70.04
2019-05-16T12:29:27.926Z,69.56
2019-05-16T12:30:25.562Z,72.66
2019-05-16T12:31:25.531Z,71.89
2019-05-16T12:32:27.547Z,73.23
2019-05-16T12:33:27.492Z,72.85
2019-05-16T12:34:25.412Z,71.51
2019-05-16T12:35:27.536Z,71.42
2019-05-16T12:36:26.758Z,71.80
2019-05-16T12:37:27.437Z,69.98
2019-05-16T12:38:27.644Z,70.17
2019-05-16T12:39:33.878Z,69.31
2019-05-16T12:41:29.652Z,68.64
2019-05-16T12:42:29.585Z,69.12
2019-05-16T12:43:44.610Z,70.65
2019-05-16T12:44:29.511Z,71.99
2019-05-16T12:45:29.479Z,71.70
2019-05-16T12:46:29.439Z,71.42
2019-05-16T12:47:29.402Z,75.05
2019-05-16T12:48:29.373Z,72.18
2019-05-16T12:49:29.327Z,69.60
2019-05-16T12:50:29.291Z,70.36
2019-05-16T12:51:29.258Z,70.46
2019-05-16T12:52:29.217Z,68.16
2019-05-16T12:53:31.832Z,70.65
2019-05-16T12:54:29.147Z,72.60
2019-05-16T12:55:29.111Z,69.02
2019-05-16T12:56:29.076Z,69.50
2019-05-16T12:57:31.021Z,69.21
2019-05-16T12:58:38.097Z,68.55
2019-05-16T12:59:28.964Z,70.07
2019-05-16T13:00:28.931Z,70.17
2019-05-16T13:01:33.711Z,69.60
2019-05-16T13:02:28.853Z,71.22
2019-05-16T13:03:28.852Z,71.61
2019-05-16T13:04:28.778Z,71.22
2019-05-16T13:05:28.748Z,72.47
2019-05-16T13:06:28.709Z,73.04
2019-05-16T13:07:28.669Z,74.76
2019-05-16T13:08:28.639Z,76.04
2019-05-16T13:09:28.635Z,75.85
2019-05-16T13:10:28.562Z,73.75
2019-05-16T13:11:28.527Z,74.51
2019-05-16T13:12:28.491Z,74.57
2019-05-16T13:13:28.450Z,75.81
2019-05-16T13:14:28.419Z,76.20
2019-05-16T13:15:28.381Z,78.63
2019-05-16T13:16:28.347Z,78.34
2019-05-16T13:17:28.308Z,77.25
2019-05-16T13:18:28.274Z,78.63
2019-05-16T13:19:33.021Z,78.72
2019-05-16T13:20:28.195Z,77.28
2019-05-16T13:21:28.164Z,77.57
2019-05-16T13:22:28.128Z,77.95
2019-05-16T13:23:28.093Z,78.43
2019-05-16T13:24:28.161Z,79.29
2019-05-16T13:25:28.013Z,81.59
2019-05-16T13:26:27.984Z,80.54
2019-05-16T13:27:27.943Z,81.59
2019-05-16T13:28:27.903Z,82.64
2019-05-16T13:29:27.874Z,80.16
2019-05-16T13:30:27.835Z,79.52
2019-05-16T13:31:28.629Z,79.62
2019-05-16T13:32:27.758Z,79.91
2019-05-16T13:33:27.726Z,78.81
2019-05-16T13:34:28.185Z,79.39
2019-05-16T13:35:27.651Z,80.10
2019-05-16T13:36:27.619Z,78.53
2019-05-16T13:37:27.687Z,81.92
2019-05-16T13:38:28.088Z,80.63
2019-05-16T13:39:27.679Z,81.92
2019-05-16T13:40:27.702Z,81.63
2019-05-16T13:41:27.452Z,80.38
2019-05-16T13:42:27.398Z,80.38
2019-05-16T13:43:27.363Z,80.77
2019-05-16T13:44:27.607Z,80.58
2019-05-16T13:45:27.446Z,80.58
2019-05-16T13:46:27.255Z,82.01
2019-05-16T13:47:27.217Z,79.91
2019-05-16T13:48:27.183Z,80.38
2019-05-16T13:49:27.142Z,81.82
2019-05-16T13:50:27.400Z,80.38
2019-05-16T13:51:27.071Z,79.91
2019-05-16T13:52:28.225Z,78.86
2019-05-16T13:53:27.356Z,79.81
2019-05-16T13:54:27.084Z,77.23
2019-05-16T13:55:27.218Z,78.19
2019-05-16T13:56:27.361Z,77.23
2019-05-16T13:57:28.266Z,78.76
2019-05-16T13:58:28.301Z,79.62
2019-05-16T13:59:28.040Z,79.95
2019-05-16T14:00:27.930Z,78.19
2019-05-16T14:01:27.762Z,76.37
2019-05-16T14:02:26.814Z,77.08
2019-05-16T14:03:27.686Z,78.70
2019-05-16T14:04:26.612Z,78.09
2019-05-16T14:05:26.862Z,77.33
2019-05-16T14:06:26.533Z,78.28
2019-05-16T14:07:26.499Z,78.22
2019-05-16T14:08:26.822Z,79.95
2019-05-16T14:09:26.812Z,79.28
2019-05-16T14:10:29.631Z,77.55
2019-05-16T14:11:26.351Z,76.31
2019-05-16T14:12:26.778Z,78.80
2019-05-16T14:13:27.923Z,78.61
2019-05-16T14:14:37.166Z,76.98
2019-05-16T14:15:27.067Z,75.93
2019-05-16T14:16:26.955Z,76.89
2019-05-16T14:17:27.468Z,77.36
2019-05-16T14:18:27.270Z,77.36
2019-05-16T14:19:27.459Z,78.61
2019-05-16T14:20:26.031Z,80.38
2019-05-16T14:21:25.995Z,80.77
2019-05-16T14:22:27.784Z,80.81
2019-05-16T14:23:28.082Z,81.00
2019-05-16T14:24:28.156Z,80.33
2019-05-16T14:25:25.855Z,79.66
2019-05-16T14:26:25.816Z,80.43
2019-05-16T14:27:26.856Z,81.67
2019-05-16T14:28:25.749Z,80.52
2019-05-16T14:29:27.836Z,81.82
2019-05-16T14:30:28.312Z,82.20
2019-05-16T14:31:25.635Z,82.11
2019-05-16T14:32:25.601Z,82.20
2019-05-16T14:33:27.483Z,82.40
2019-05-16T14:34:27.903Z,83.06
2019-05-16T14:35:26.777Z,83.45
2019-05-16T14:36:27.770Z,83.06
2019-05-16T14:37:26.872Z,84.06
2019-05-16T14:38:26.956Z,84.55
2019-05-16T14:39:28.349Z,83.49
2019-05-16T14:40:27.701Z,84.83
2019-05-16T14:41:27.715Z,84.45
2019-05-16T14:42:27.820Z,84.26
2019-05-16T14:43:27.120Z,85.21
2019-05-16T14:44:28.379Z,83.49
2019-05-16T14:45:26.366Z,84.74
2019-05-16T14:46:27.262Z,85.21
2019-05-16T14:47:27.231Z,85.21
2019-05-16T14:48:27.570Z,85.31
2019-05-16T14:49:28.434Z,85.88
2019-05-16T14:50:27.532Z,85.98
2019-05-16T14:51:29.334Z,85.06
2019-05-16T14:52:26.974Z,85.35
2019-05-16T14:53:28.199Z,85.35
2019-05-16T14:54:26.786Z,85.16
2019-05-16T14:55:27.305Z,84.64
2019-05-16T14:56:27.334Z,86.08
2019-05-16T14:57:27.200Z,86.55
2019-05-16T14:58:30.348Z,87.03
2019-05-16T14:59:26.850Z,86.27
2019-05-16T15:00:27.402Z,87.03
2019-05-16T15:01:26.587Z,86.84
2019-05-16T15:02:27.296Z,88.18
2019-05-16T15:03:27.131Z,89.04
2019-05-16T15:04:29.813Z,88.85
2019-05-16T15:05:24.433Z,89.33
2019-05-16T15:06:24.383Z,89.33
2019-05-16T15:07:24.349Z,88.76
2019-05-16T15:08:24.313Z,88.76
2019-05-16T15:09:24.280Z,88.76
2019-05-16T15:10:24.241Z,89.28
2019-05-16T15:11:24.205Z,89.14
2019-05-16T15:12:26.644Z,89.23
2019-05-16T15:13:24.132Z,89.62
2019-05-16T15:14:24.096Z,89.57
2019-05-16T15:15:27.403Z,89.23
2019-05-16T15:16:24.025Z,89.33
2019-05-16T15:17:23.994Z,89.72
2019-05-16T15:18:23.965Z,90.19
2019-05-16T15:19:23.922Z,91.05
2019-05-16T15:20:23.886Z,92.11
2019-05-16T15:21:23.845Z,92.21
2019-05-16T15:34:47.694Z,92.58
2019-05-16T15:35:47.119Z,92.83
2019-05-16T15:36:46.653Z,92.78
2019-05-16T15:37:48.429Z,91.92
2019-05-16T15:38:47.220Z,92.97
2019-05-16T15:39:47.556Z,93.02
2019-05-16T15:40:48.035Z,93.79
2019-05-16T15:41:45.909Z,93.40
2019-05-16T15:42:45.871Z,93.40
2019-05-16T15:43:45.836Z,93.79
2019-05-16T15:44:45.797Z,94.74
2019-05-16T15:45:52.027Z,94.74
2019-05-16T15:46:47.650Z,94.55
2019-05-16T15:47:45.695Z,95.03
2019-05-16T15:48:48.570Z,95.51
2019-05-16T15:49:47.575Z,95.22
2019-05-16T15:50:45.575Z,95.70
2019-05-16T15:51:45.533Z,95.51
2019-05-16T15:52:45.498Z,95.51
2019-05-16T15:53:45.474Z,96.37
2019-05-16T15:54:45.422Z,97.13
2019-05-16T15:55:47.059Z,97.33
2019-05-16T15:56:46.702Z,97.28
2019-05-16T15:57:47.283Z,97.08
2019-05-16T15:58:46.688Z,97.80
2019-05-16T15:59:46.947Z,97.90
2019-05-16T16:00:48.111Z,97.80
2019-05-16T16:01:47.395Z,97.71
2019-05-16T16:02:45.134Z,97.47
2019-05-16T16:03:47.200Z,98.14
2019-05-16T16:04:47.579Z,97.85
2019-05-16T16:05:45.020Z,98.04
2019-05-16T16:06:47.219Z,97.85
2019-05-16T16:07:44.949Z,98.52
2019-05-16T16:08:46.956Z,98.04
2019-05-16T16:09:46.981Z,98.04
2019-05-16T16:10:47.511Z,98.33
2019-05-16T16:11:44.800Z,97.85
2019-05-16T16:12:44.765Z,98.09
2019-05-16T16:13:44.727Z,98.75
2019-05-16T16:14:46.589Z,97.23
2019-05-16T16:15:53.268Z,98.95
2019-05-16T16:16:46.354Z,98.47
2019-05-16T16:17:46.491Z,98.66
2019-05-16T16:18:46.698Z,97.90
2019-05-16T16:19:46.775Z,97.23
2019-05-16T16:20:47.572Z,98.28
2019-05-16T16:21:47.077Z,98.09
2019-05-16T16:22:46.733Z,98.28
2019-05-16T16:23:47.126Z,97.52
2019-05-16T16:24:47.528Z,98.47
2019-05-16T16:25:49.650Z,98.28
2019-05-16T16:26:44.253Z,98.38
2019-05-16T16:27:44.219Z,98.85
2019-05-16T16:28:44.178Z,98.57
2019-05-16T16:29:44.142Z,98.85
2019-05-16T16:30:44.109Z,98.18
2019-05-16T16:31:44.068Z,98.09
2019-05-16T16:32:44.032Z,96.84
2019-05-16T16:33:44.003Z,97.13
2019-05-16T16:34:43.961Z,97.52
2019-05-16T16:35:43.923Z,97.52
2019-05-16T16:36:43.882Z,97.61
2019-05-16T16:37:43.848Z,97.80
2019-05-16T16:38:43.806Z,97.61
2019-05-16T16:39:43.775Z,97.52
2019-05-16T16:40:43.738Z,96.66
2019-05-16T16:41:43.701Z,97.61
2019-05-16T16:42:43.664Z,97.04
2019-05-16T16:43:43.622Z,97.42
2019-05-16T16:44:43.590Z,97.42
2019-05-16T16:45:43.553Z,97.71
2019-05-16T16:46:43.517Z,96.56
2019-05-16T16:47:43.479Z,96.27
2019-05-16T16:48:43.441Z,96.56
2019-05-16T16:49:43.418Z,96.75
2019-05-16T16:50:43.365Z,96.94
2019-05-16T16:51:43.333Z,96.56
2019-05-16T16:52:43.293Z,96.56
2019-05-16T16:53:43.256Z,96.66
2019-05-16T16:54:43.228Z,96.56
2019-05-16T16:55:43.185Z,96.37
2019-05-16T16:56:43.150Z,96.37
2019-05-16T16:57:43.117Z,96.66
2019-05-16T16:58:43.068Z,97.42
2019-05-16T16:59:43.037Z,97.61
2019-05-16T17:00:42.998Z,96.37
2019-05-16T17:01:42.961Z,96.18
2019-05-16T17:02:58.456Z,97.52
2019-05-16T17:03:42.882Z,97.23
2019-05-16T17:04:42.854Z,98.18
2019-05-16T17:05:42.815Z,97.61
2019-05-16T17:06:42.779Z,97.28
2019-05-16T17:07:42.735Z,96.99
2019-05-16T17:08:42.700Z,96.47
2019-05-16T17:09:42.665Z,96.89
2019-05-16T17:10:42.625Z,97.18
2019-05-16T17:11:42.592Z,97.18
2019-05-16T17:12:42.725Z,97.28
2019-05-16T17:13:42.529Z,96.51
2019-05-16T17:14:42.480Z,95.94
2019-05-16T17:15:42.440Z,96.70
2019-05-16T17:16:42.403Z,96.42
2019-05-16T17:17:42.371Z,96.80
2019-05-16T17:18:42.332Z,96.42
2019-05-16T17:19:42.297Z,96.42
2019-05-16T17:20:42.259Z,96.42
2019-05-16T17:21:51.895Z,95.75
2019-05-16T17:22:42.179Z,94.51
2019-05-16T17:23:42.148Z,93.93
2019-05-16T17:24:42.108Z,95.79
2019-05-16T17:25:42.072Z,95.03
2019-05-16T17:26:42.035Z,94.84
2019-05-16T17:27:41.993Z,94.27
2019-05-16T17:28:41.958Z,93.70
2019-05-16T17:29:41.920Z,93.12
2019-05-16T17:30:41.881Z,92.55
2019-05-16T17:31:41.849Z,93.12
2019-05-16T17:32:41.811Z,92.64
2019-05-16T17:33:41.774Z,91.88
2019-05-16T17:34:41.736Z,94.36
2019-05-16T17:35:41.694Z,94.07
2019-05-16T17:36:41.658Z,94.46
2019-05-16T17:37:41.629Z,95.12
2019-05-16T17:38:41.599Z,94.17
2019-05-16T17:39:41.544Z,94.07
2019-05-16T17:40:41.509Z,93.88
2019-05-16T17:41:41.471Z,93.12
2019-05-16T17:42:41.432Z,93.60
2019-05-16T17:43:41.399Z,93.12
2019-05-16T17:44:41.363Z,93.02
2019-05-16T17:45:41.324Z,93.60
2019-05-16T17:46:41.287Z,93.31
2019-05-16T17:47:41.244Z,93.60
2019-05-16T17:48:41.209Z,91.59
2019-05-16T17:49:41.181Z,93.31